Impacts TAF Board
For situational awareness. Not to be used for flight planning purposes.
IDs:

KRIL - Rifle/Garfield Cnty, CO, US

Issued at 1738 UTC 21 May 2022
Updated at 2114 UTC 21 May 2022
Potential Impact None Slight Moderate High
Time2053Z 21/22Z 21/23Z 22/00Z 22/01Z 22/02Z 22/03Z 22/04Z 22/05Z 22/06Z 22/07Z 22/08Z 22/09Z 22/10Z>>
Type OBS PRVL PRVL PRVL PRVL PRVL PRVL PRVL PRVL PRVL PRVL PRVL PRVL PRVL
VIS 10 >6 >6 >6 >6 >6 >6 >6 >6 >6 >6 >6 >6 >6
CIG -- -- -- -- -- -- -- -- -- -- -- -- -- --
Cover FEW SCT SCT SCT SCT SCT SCT SCT SCT SCT SCT SCT SCT SCT
FltCat VFR VFR VFR VFR VFR VFR VFR VFR VFR VFR VFR VFR VFR VFR
WX -- -- -- -- -- -- -- -- -- -- -- -- -- --
WDir VRB 260 260 260 260 200 200 200 200 VRB VRB VRB VRB VRB
WSpd 3 8 8 8 8 9 9 9 9 4 4 4 4 4
WGst -- -- -- -- -- -- -- -- -- -- -- -- -- --
WSHgt -- -- -- -- -- -- -- -- -- -- -- -- -- --
WSDir -- -- -- -- -- -- -- -- -- -- -- -- -- --
WSSpd -- -- -- -- -- -- -- -- -- -- -- -- -- --
Raw TAF
KRIL 211738Z 2118/2218 26008KT P6SM FEW070 SCT250
  FM220200 20009KT P6SM FEW150 SCT250
  FM220600 VRB04KT P6SM FEW100 SCT250
  FM221200 VRB04KT 4SM BR FEW002


Raw METAR
KRIL 212053Z AUTO VRB03KT 10SM FEW100 14/M10 A3009 RMK AO2 SLP167 T01441100 56010
KRIL 211953Z AUTO VRB03KT 10SM CLR 14/M08 A3009 RMK AO2 SLP170 T01391083
KRIL 211853Z AUTO 10SM CLR 12/M07 A3011 RMK AO2 SLP176 T01221072

METAR Board
Radar Display
Forecast Discussion
For situational awareness. Not to be used for flight planning purposes.